createdAt,value
2023-04-24T00:01:56.379Z,8.90
2023-04-24T00:04:27.463Z,9.60
2023-04-24T00:06:58.551Z,8.67
2023-04-24T00:09:26.274Z,8.23
2023-04-24T00:11:54.925Z,8.83
2023-04-24T00:14:22.804Z,9.37
2023-04-24T00:16:50.412Z,7.20
2023-04-24T00:19:18.075Z,8.00
2023-04-24T00:21:45.569Z,11.07
2023-04-24T00:24:13.131Z,7.63
2023-04-24T00:26:40.739Z,7.23
2023-04-24T00:29:10.565Z,8.10
2023-04-24T00:31:38.139Z,7.87
2023-04-24T00:34:06.816Z,8.30
2023-04-24T00:36:34.355Z,7.53
2023-04-24T00:39:02.082Z,8.20
2023-04-24T00:41:29.817Z,6.83
2023-04-24T00:43:57.412Z,7.00
2023-04-24T00:46:24.899Z,7.10
2023-04-24T00:48:53.017Z,7.30
2023-04-24T00:51:21.234Z,7.47
2023-04-24T00:53:48.852Z,7.60
2023-04-24T00:56:16.835Z,6.83
2023-04-24T00:58:46.013Z,7.43
2023-04-24T01:01:13.668Z,7.20
2023-04-24T01:03:42.242Z,7.37
2023-04-24T01:06:11.663Z,7.70
2023-04-24T01:08:41.113Z,8.07
2023-04-24T01:11:08.699Z,7.80
2023-04-24T01:13:36.615Z,7.83
2023-04-24T01:16:04.321Z,7.73
2023-04-24T01:18:32.014Z,8.30
2023-04-24T01:21:01.271Z,8.77
2023-04-24T01:23:28.960Z,9.07
2023-04-24T01:25:56.988Z,10.07
2023-04-24T01:28:24.575Z,8.37
2023-04-24T01:30:52.384Z,7.50
2023-04-24T01:33:22.152Z,7.80
2023-04-24T01:35:50.659Z,7.00
2023-04-24T01:38:18.156Z,7.97
2023-04-24T01:40:46.280Z,7.80
2023-04-24T01:43:14.618Z,9.17
2023-04-24T01:45:42.125Z,8.10
2023-04-24T01:48:09.970Z,11.13
2023-04-24T01:50:37.633Z,8.20
2023-04-24T01:53:05.634Z,8.03
2023-04-24T01:55:33.692Z,8.47
2023-04-24T01:58:03.425Z,8.70
2023-04-24T02:00:31.210Z,8.50
2023-04-24T02:02:58.959Z,7.57
2023-04-24T02:05:26.570Z,8.70
2023-04-24T02:07:54.072Z,9.40
2023-04-24T02:10:21.636Z,9.90
2023-04-24T02:12:49.280Z,8.10
2023-04-24T02:15:16.863Z,8.70
2023-04-24T02:17:44.337Z,8.93
2023-04-24T02:20:12.201Z,8.80
2023-04-24T02:22:39.747Z,11.00
2023-04-24T02:25:07.824Z,10.27
2023-04-24T02:27:35.479Z,11.63
2023-04-24T02:30:04.164Z,8.53
2023-04-24T02:32:33.700Z,9.67
2023-04-24T02:35:01.373Z,8.80
2023-04-24T02:37:28.971Z,9.20
2023-04-24T02:39:56.449Z,9.23
2023-04-24T02:42:23.955Z,9.33
2023-04-24T02:44:52.682Z,10.23
2023-04-24T02:47:20.235Z,9.90
2023-04-24T02:49:47.824Z,8.63
2023-04-24T02:52:16.098Z,9.93
2023-04-24T02:54:44.032Z,9.80
2023-04-24T02:57:11.626Z,7.80
2023-04-24T02:59:39.219Z,8.60
2023-04-24T03:02:07.084Z,8.57
2023-04-24T03:04:34.849Z,8.90
2023-04-24T03:07:02.525Z,9.27
2023-04-24T03:09:30.033Z,9.73
2023-04-24T03:11:58.491Z,9.40
2023-04-24T03:14:26.230Z,9.33
2023-04-24T03:16:53.727Z,10.87
2023-04-24T03:19:21.254Z,9.20
2023-04-24T03:21:48.902Z,8.70
2023-04-24T03:24:16.373Z,10.07
2023-04-24T03:26:44.085Z,9.03
2023-04-24T03:29:11.805Z,10.20
2023-04-24T03:31:39.386Z,9.07
2023-04-24T03:34:06.934Z,10.60
2023-04-24T03:36:34.470Z,9.53
2023-04-24T03:39:01.908Z,9.33
2023-04-24T03:41:29.947Z,9.30
2023-04-24T03:43:57.655Z,8.77
2023-04-24T03:46:25.589Z,11.93
2023-04-24T03:48:53.146Z,10.57
2023-04-24T03:51:20.772Z,10.53
2023-04-24T03:53:48.627Z,14.13
2023-04-24T03:56:16.178Z,9.80
2023-04-24T03:58:44.085Z,9.50
2023-04-24T04:01:12.892Z,8.23
2023-04-24T04:03:40.718Z,7.40
2023-04-24T04:06:08.397Z,9.03
2023-04-24T04:08:35.981Z,8.03
2023-04-24T04:11:05.405Z,8.53
2023-04-24T04:13:33.206Z,9.30
2023-04-24T04:16:00.897Z,8.07
2023-04-24T04:18:28.563Z,8.50
2023-04-24T04:20:56.129Z,10.60
2023-04-24T04:23:23.846Z,7.33
2023-04-24T04:25:53.113Z,9.70
2023-04-24T04:28:21.089Z,11.10
2023-04-24T04:30:48.837Z,7.50
2023-04-24T04:33:17.639Z,7.63
2023-04-24T04:35:45.219Z,7.93
2023-04-24T04:38:12.895Z,8.63
2023-04-24T04:40:41.491Z,6.20
2023-04-24T04:43:09.274Z,5.87
2023-04-24T04:45:36.778Z,6.90
2023-04-24T04:48:04.754Z,5.63
2023-04-24T04:50:32.439Z,5.53
2023-04-24T04:53:00.014Z,4.57
2023-04-24T04:55:27.603Z,4.80
2023-04-24T04:57:56.780Z,4.70
2023-04-24T05:00:36.179Z,7.33
2023-04-24T05:03:19.107Z,4.30
2023-04-24T05:05:48.556Z,3.80
2023-04-24T05:08:26.547Z,3.93
2023-04-24T05:10:55.340Z,3.17
2023-04-24T05:13:32.153Z,3.13
2023-04-24T05:16:07.788Z,4.30
2023-04-24T05:18:35.439Z,3.37
2023-04-24T05:21:03.412Z,3.13
2023-04-24T05:23:31.070Z,3.27
2023-04-24T05:25:58.761Z,3.20
2023-04-24T05:28:29.553Z,3.33
2023-04-24T05:30:57.245Z,2.77
2023-04-24T05:33:24.746Z,3.77
2023-04-24T05:35:52.579Z,3.10
2023-04-24T05:38:20.883Z,3.40
2023-04-24T05:40:48.434Z,3.23
2023-04-24T05:43:16.016Z,3.10
2023-04-24T05:45:43.509Z,3.27
2023-04-24T05:48:11.206Z,3.37
2023-04-24T05:50:38.961Z,4.13
2023-04-24T05:53:08.240Z,3.57
2023-04-24T05:55:35.883Z,3.60
2023-04-24T05:58:03.858Z,4.50
2023-04-24T06:00:31.512Z,3.73
2023-04-24T06:02:59.297Z,3.63
2023-04-24T06:05:27.726Z,4.00
2023-04-24T06:07:55.438Z,4.33
2023-04-24T06:10:23.017Z,4.33
2023-04-24T06:12:50.765Z,6.10
2023-04-24T06:15:18.414Z,4.20
2023-04-24T06:17:46.124Z,4.43
2023-04-24T06:20:13.842Z,3.87
2023-04-24T06:22:41.379Z,4.50
2023-04-24T06:25:09.171Z,4.90
2023-04-24T06:27:36.829Z,4.90
2023-04-24T06:30:04.778Z,4.83
2023-04-24T06:32:32.412Z,4.50
2023-04-24T06:35:00.016Z,4.53
2023-04-24T06:37:27.655Z,4.70
2023-04-24T06:39:55.276Z,5.80
2023-04-24T06:42:23.286Z,3.83
2023-04-24T06:44:51.020Z,5.43
2023-04-24T06:47:18.571Z,5.17
2023-04-24T06:49:46.313Z,5.00
2023-04-24T06:52:14.093Z,5.30
2023-04-24T06:54:43.336Z,5.27
2023-04-24T06:57:11.753Z,4.97
2023-04-24T06:59:39.625Z,5.50
2023-04-24T07:02:07.442Z,5.43
2023-04-24T07:04:35.264Z,6.80
2023-04-24T07:07:03.693Z,6.40
2023-04-24T07:09:31.388Z,7.10
2023-04-24T07:11:58.905Z,6.33
2023-04-24T07:14:26.706Z,6.63
2023-04-24T07:16:54.314Z,8.10
2023-04-24T07:19:21.906Z,7.53
2023-04-24T07:21:49.367Z,6.80
2023-04-24T07:24:16.872Z,5.87
2023-04-24T07:26:44.907Z,6.20
2023-04-24T07:29:12.421Z,6.63
2023-04-24T07:31:40.124Z,5.30
2023-04-24T07:34:07.716Z,6.17
2023-04-24T07:36:35.299Z,6.03
2023-04-24T07:39:03.210Z,6.00
2023-04-24T07:41:30.884Z,7.30
2023-04-24T07:43:59.741Z,5.60
2023-04-24T07:46:31.149Z,6.20
2023-04-24T07:49:12.254Z,4.87
2023-04-24T07:51:41.586Z,4.60
2023-04-24T07:54:09.197Z,6.90
2023-04-24T07:56:40.364Z,3.63
2023-04-24T07:59:08.310Z,5.07
2023-04-24T08:01:35.871Z,5.07
2023-04-24T08:04:03.563Z,5.13
2023-04-24T08:06:31.821Z,4.20
2023-04-24T08:09:00.801Z,4.40
2023-04-24T08:11:28.611Z,3.83
2023-04-24T08:13:56.346Z,4.43
2023-04-24T08:16:25.351Z,4.00
2023-04-24T08:18:54.358Z,4.07
2023-04-24T08:21:22.058Z,3.83
2023-04-24T08:23:49.813Z,3.80
2023-04-24T08:26:17.944Z,6.23
2023-04-24T08:28:45.801Z,3.70
2023-04-24T08:31:13.321Z,4.50
2023-04-24T08:33:42.209Z,5.30
2023-04-24T08:36:09.829Z,4.37
2023-04-24T08:38:37.402Z,4.33
2023-04-24T08:41:06.353Z,4.97
2023-04-24T08:43:35.654Z,5.10
2023-04-24T08:46:05.633Z,3.93
2023-04-24T08:48:36.491Z,4.23
2023-04-24T08:51:05.995Z,4.63
2023-04-24T08:53:34.480Z,4.00
2023-04-24T08:56:02.925Z,4.67
2023-04-24T08:58:31.784Z,5.30
2023-04-24T09:01:00.298Z,4.67
2023-04-24T09:03:30.299Z,5.73
2023-04-24T09:05:59.450Z,4.60
2023-04-24T09:08:29.472Z,5.03
2023-04-24T09:10:59.527Z,4.77
2023-04-24T09:13:27.883Z,4.77
2023-04-24T09:15:55.644Z,5.30
2023-04-24T09:18:23.223Z,5.77
2023-04-24T09:21:04.974Z,4.63
2023-04-24T09:23:33.483Z,4.40
2023-04-24T09:26:02.886Z,6.10
2023-04-24T09:28:36.738Z,4.70
2023-04-24T09:31:24.603Z,5.20
2023-04-24T09:34:06.499Z,4.63
2023-04-24T09:36:38.292Z,4.53
2023-04-24T09:39:14.087Z,4.27
2023-04-24T09:42:01.016Z,4.17
2023-04-24T09:44:29.655Z,4.87
2023-04-24T09:47:00.461Z,3.93
2023-04-24T09:49:32.059Z,4.10
2023-04-24T09:52:06.257Z,4.90
2023-04-24T09:54:34.470Z,4.17
2023-04-24T09:57:02.257Z,3.97
2023-04-24T09:59:30.669Z,4.20
2023-04-24T10:02:00.095Z,6.20
2023-04-24T10:04:29.862Z,3.17
2023-04-24T10:06:58.473Z,3.70
2023-04-24T10:09:27.868Z,5.63
2023-04-24T10:11:56.283Z,3.37
2023-04-24T10:14:26.438Z,3.10
2023-04-24T10:16:59.794Z,3.97
2023-04-24T10:19:28.015Z,5.20
2023-04-24T10:21:56.987Z,4.53
2023-04-24T10:24:24.541Z,3.57
2023-04-24T10:26:52.205Z,3.90
2023-04-24T10:29:20.953Z,4.17
2023-04-24T10:31:48.839Z,4.70
2023-04-24T10:34:20.237Z,3.40
2023-04-24T10:36:52.433Z,3.70
2023-04-24T10:39:27.683Z,3.73
2023-04-24T10:41:58.786Z,4.17
2023-04-24T10:44:26.735Z,4.17
2023-04-24T10:46:57.682Z,4.20
2023-04-24T10:49:33.126Z,3.83
2023-04-24T10:52:08.216Z,4.20
2023-04-24T10:54:42.260Z,3.77
2023-04-24T10:57:32.156Z,4.80
2023-04-24T11:00:32.206Z,6.40
2023-04-24T11:02:59.933Z,3.30
2023-04-24T11:05:54.636Z,3.00
2023-04-24T11:08:37.520Z,3.10
2023-04-24T11:11:09.823Z,4.07
2023-04-24T11:13:58.122Z,3.10
2023-04-24T11:16:30.438Z,2.93
2023-04-24T11:19:18.221Z,3.73
2023-04-24T11:21:50.322Z,3.10
2023-04-24T11:24:54.197Z,3.40
2023-04-24T11:27:23.310Z,3.30
2023-04-24T11:29:57.325Z,3.07
2023-04-24T11:32:30.840Z,2.60
2023-04-24T11:35:18.355Z,3.90
2023-04-24T11:38:08.204Z,3.90
2023-04-24T11:40:35.869Z,5.17
2023-04-24T11:43:07.701Z,3.93
2023-04-24T11:45:36.029Z,4.07
2023-04-24T11:48:05.084Z,3.80
2023-04-24T11:50:32.811Z,4.37
2023-04-24T11:53:01.643Z,3.93
2023-04-24T11:55:30.745Z,3.57
2023-04-24T11:58:00.702Z,3.80
2023-04-24T12:00:33.047Z,3.60
2023-04-24T12:03:11.989Z,4.97
2023-04-24T12:05:40.984Z,4.13
2023-04-24T12:08:08.702Z,4.83
2023-04-24T12:10:36.481Z,4.27
2023-04-24T12:13:04.554Z,3.77
2023-04-24T12:15:32.304Z,4.10
2023-04-24T12:18:01.200Z,4.90
2023-04-24T12:20:30.916Z,5.27
2023-04-24T12:23:00.172Z,5.67
2023-04-24T12:25:35.873Z,6.73
2023-04-24T12:28:06.576Z,5.50
2023-04-24T12:30:36.633Z,5.70
2023-04-24T12:33:04.879Z,5.33
2023-04-24T12:35:34.923Z,5.90
2023-04-24T12:38:14.410Z,5.87
2023-04-24T12:40:43.248Z,5.27
2023-04-24T12:43:18.696Z,4.13
2023-04-24T12:45:46.711Z,4.33
2023-04-24T12:48:15.461Z,4.37
2023-04-24T12:50:46.093Z,4.07
2023-04-24T12:53:14.835Z,4.03
2023-04-24T12:55:42.474Z,4.13
2023-04-24T12:58:10.160Z,6.60
2023-04-24T13:00:38.670Z,4.17
2023-04-24T13:03:06.644Z,4.37
2023-04-24T13:05:34.305Z,4.60
2023-04-24T13:08:01.894Z,5.50
2023-04-24T13:10:29.498Z,4.17
2023-04-24T13:12:57.252Z,4.80
2023-04-24T13:15:24.797Z,4.13
2023-04-24T13:17:52.429Z,5.17
2023-04-24T13:20:20.122Z,4.20
2023-04-24T13:22:47.637Z,4.40
2023-04-24T13:25:18.276Z,4.00
2023-04-24T13:27:45.961Z,10.10
2023-04-24T13:30:14.159Z,7.63
2023-04-24T13:32:41.811Z,4.83
2023-04-24T13:35:09.853Z,4.47
2023-04-24T13:37:37.572Z,4.97
2023-04-24T13:40:07.311Z,4.10
2023-04-24T13:42:35.191Z,4.63
2023-04-24T13:45:13.914Z,5.23
2023-04-24T13:47:52.001Z,5.17
2023-04-24T13:50:20.001Z,5.17
2023-04-24T13:52:47.535Z,6.30
2023-04-24T13:55:15.112Z,6.30
2023-04-24T13:57:42.630Z,6.97
2023-04-24T14:00:11.961Z,5.03
2023-04-24T14:02:39.675Z,5.10
2023-04-24T14:05:07.861Z,4.63
2023-04-24T14:07:35.678Z,5.60
2023-04-24T14:10:03.287Z,4.27
2023-04-24T14:12:30.849Z,4.40
2023-04-24T14:14:58.364Z,4.40
2023-04-24T14:17:26.021Z,3.97
2023-04-24T14:19:57.030Z,5.00
2023-04-24T14:22:24.672Z,3.93
2023-04-24T14:24:52.734Z,4.80
2023-04-24T14:27:20.336Z,4.27
2023-04-24T14:29:47.925Z,4.37
2023-04-24T14:32:16.373Z,4.63
2023-04-24T14:34:43.980Z,5.50
2023-04-24T14:37:11.576Z,4.33
2023-04-24T14:39:39.066Z,4.30
2023-04-24T14:42:06.656Z,7.30
2023-04-24T14:44:35.115Z,4.30
2023-04-24T14:47:02.714Z,5.03
2023-04-24T14:49:30.273Z,6.30
2023-04-24T14:51:57.846Z,6.63
2023-04-24T14:54:26.400Z,5.17
2023-04-24T14:56:54.042Z,8.37
2023-04-24T14:59:22.081Z,9.07
2023-04-24T15:01:50.133Z,7.13
2023-04-24T15:04:19.583Z,8.77
2023-04-24T15:06:47.274Z,12.23
2023-04-24T15:09:14.761Z,13.23
2023-04-24T15:11:42.745Z,14.00
2023-04-24T15:14:12.180Z,8.30
2023-04-24T15:16:40.153Z,10.00
2023-04-24T15:19:07.813Z,6.67
2023-04-24T15:21:35.311Z,12.43
2023-04-24T15:24:02.898Z,10.03
2023-04-24T15:26:30.733Z,13.03
2023-04-24T15:28:58.446Z,9.97
2023-04-24T15:31:26.312Z,8.53
2023-04-24T15:33:54.059Z,10.97
2023-04-24T15:36:22.444Z,12.00
2023-04-24T15:38:50.758Z,8.27
2023-04-24T15:41:18.313Z,15.00
2023-04-24T15:43:46.263Z,11.63
2023-04-24T15:46:14.094Z,15.17
2023-04-24T15:48:43.770Z,9.73
2023-04-24T15:51:11.423Z,10.00
2023-04-24T15:53:38.949Z,12.13
2023-04-24T15:56:06.772Z,10.53
2023-04-24T15:58:34.521Z,11.70
2023-04-24T16:01:02.127Z,10.37
2023-04-24T16:03:29.905Z,8.87
2023-04-24T16:05:57.770Z,11.20
2023-04-24T16:08:25.501Z,7.57
2023-04-24T16:10:53.184Z,8.90
2023-04-24T16:13:20.721Z,7.37
2023-04-24T16:15:48.604Z,9.80
2023-04-24T16:18:17.761Z,7.17
2023-04-24T16:20:45.410Z,7.10
2023-04-24T16:23:13.180Z,5.73
2023-04-24T16:25:40.868Z,8.03
2023-04-24T16:28:08.572Z,4.10
2023-04-24T16:30:37.305Z,5.83
2023-04-24T16:33:07.902Z,6.17
2023-04-24T16:35:36.709Z,7.83
2023-04-24T16:38:05.030Z,3.23
2023-04-24T16:40:32.832Z,9.87
2023-04-24T16:43:00.740Z,5.10
2023-04-24T16:45:28.675Z,3.20
2023-04-24T16:47:56.453Z,4.83
2023-04-24T16:50:24.011Z,3.50
2023-04-24T16:52:51.580Z,3.60
2023-04-24T16:55:19.093Z,2.33
2023-04-24T16:57:46.739Z,4.50
2023-04-24T17:00:14.776Z,3.07
2023-04-24T17:02:42.629Z,3.57
2023-04-24T17:05:13.414Z,3.97
2023-04-24T17:07:47.143Z,7.97
2023-04-24T17:10:19.019Z,5.37
2023-04-24T17:12:47.283Z,11.03
2023-04-24T17:15:14.792Z,2.53
2023-04-24T17:17:44.496Z,5.20
2023-04-24T17:20:22.121Z,3.00
2023-04-24T17:22:50.862Z,2.30
2023-04-24T17:25:18.779Z,7.30
2023-04-24T17:27:46.767Z,3.50
2023-04-24T17:30:15.072Z,5.57
2023-04-24T17:32:42.702Z,4.70
2023-04-24T17:35:11.100Z,4.53
2023-04-24T17:37:38.917Z,3.43
2023-04-24T17:40:07.567Z,3.03
2023-04-24T17:42:38.218Z,1.63
2023-04-24T17:45:06.726Z,3.17
2023-04-24T17:47:34.365Z,2.90
2023-04-24T17:50:01.984Z,2.63
2023-04-24T17:52:29.523Z,4.20
2023-04-24T17:54:57.156Z,3.53
2023-04-24T17:57:24.731Z,3.70
2023-04-24T17:59:53.227Z,2.77
2023-04-24T18:02:23.947Z,2.03
2023-04-24T18:04:58.771Z,2.50
2023-04-24T18:07:27.523Z,8.73
2023-04-24T18:09:57.929Z,3.20
2023-04-24T18:12:25.729Z,2.07
2023-04-24T18:14:59.901Z,2.40
2023-04-24T18:17:34.148Z,4.37
2023-04-24T18:20:01.690Z,2.07
2023-04-24T18:22:29.504Z,4.57
2023-04-24T18:24:57.344Z,3.10
2023-04-24T18:27:25.637Z,3.77
2023-04-24T18:29:56.014Z,2.17
2023-04-24T18:32:24.007Z,3.80
2023-04-24T18:34:51.664Z,2.53
2023-04-24T18:37:19.213Z,4.30
2023-04-24T18:39:47.267Z,2.10
2023-04-24T18:42:14.845Z,7.03
2023-04-24T18:44:43.061Z,3.17
2023-04-24T18:47:11.469Z,2.13
2023-04-24T18:49:39.633Z,2.50
2023-04-24T18:52:07.272Z,1.50
2023-04-24T18:54:37.673Z,1.63
2023-04-24T18:57:08.139Z,4.60
2023-04-24T18:59:35.835Z,1.90
2023-04-24T19:02:03.538Z,1.70
2023-04-24T19:04:31.423Z,1.70
2023-04-24T19:06:59.045Z,4.73
2023-04-24T19:09:26.721Z,2.50
2023-04-24T19:11:54.266Z,1.87
2023-04-24T19:14:23.247Z,2.73
2023-04-24T19:16:51.086Z,2.43
2023-04-24T19:19:18.633Z,2.03
2023-04-24T19:21:47.633Z,2.90
2023-04-24T19:24:15.166Z,2.53
2023-04-24T19:26:42.753Z,2.03
2023-04-24T19:29:10.213Z,3.67
2023-04-24T19:31:37.802Z,3.60
2023-04-24T19:34:05.505Z,5.43
2023-04-24T19:36:34.096Z,5.40
2023-04-24T19:39:01.716Z,5.03
2023-04-24T19:41:29.335Z,6.20
2023-04-24T19:43:56.856Z,4.77
2023-04-24T19:46:24.752Z,4.00
2023-04-24T19:48:52.534Z,4.20
2023-04-24T19:51:20.242Z,5.33
2023-04-24T19:53:49.586Z,5.40
2023-04-24T19:56:17.180Z,4.30
2023-04-24T19:58:44.981Z,5.37
2023-04-24T20:01:12.576Z,8.00
2023-04-24T20:03:40.280Z,6.40
2023-04-24T20:06:07.986Z,5.27
2023-04-24T20:08:39.085Z,5.07
2023-04-24T20:11:06.883Z,5.83
2023-04-24T20:13:34.509Z,8.80
2023-04-24T20:16:02.029Z,4.87
2023-04-24T20:18:29.611Z,5.00
2023-04-24T20:21:00.080Z,7.47
2023-04-24T20:23:27.882Z,5.47
2023-04-24T20:25:58.633Z,4.53
2023-04-24T20:28:31.823Z,6.00
2023-04-24T20:30:59.858Z,3.60
2023-04-24T20:33:28.728Z,7.03
2023-04-24T20:35:56.563Z,4.73
2023-04-24T20:38:24.654Z,3.57
2023-04-24T20:43:27.629Z,7.30
2023-04-24T20:45:56.668Z,13.50
2023-04-24T20:48:24.220Z,5.37
2023-04-24T20:50:54.054Z,3.80
2023-04-24T20:53:22.029Z,6.90
2023-04-24T20:55:49.796Z,7.03
2023-04-24T20:58:18.915Z,13.37
2023-04-24T21:00:47.199Z,11.57
2023-04-24T21:03:17.648Z,4.97
2023-04-24T21:05:45.294Z,7.60
2023-04-24T21:08:12.979Z,7.07
2023-04-24T21:10:40.478Z,12.90
2023-04-24T21:13:08.140Z,6.63
2023-04-24T21:15:35.857Z,6.97
2023-04-24T21:18:03.907Z,5.47
2023-04-24T21:20:31.535Z,9.47
2023-04-24T21:22:59.101Z,7.27
2023-04-24T21:25:26.699Z,13.10
2023-04-24T21:27:54.451Z,10.00
2023-04-24T21:30:22.375Z,6.63
2023-04-24T21:32:50.085Z,13.97
2023-04-24T21:35:17.675Z,9.20
2023-04-24T21:37:45.417Z,8.37
2023-04-24T21:40:13.371Z,7.50
2023-04-24T21:42:41.172Z,9.37
2023-04-24T21:45:09.675Z,9.00
2023-04-24T21:47:37.262Z,14.43
2023-04-24T21:50:05.811Z,5.37
2023-04-24T21:52:33.312Z,6.80
2023-04-24T21:55:00.822Z,11.50
2023-04-24T21:57:29.797Z,7.63
2023-04-24T21:59:57.403Z,11.33
2023-04-24T22:02:24.982Z,8.90
2023-04-24T22:04:53.272Z,4.07
2023-04-24T22:07:21.091Z,6.27
2023-04-24T22:09:48.586Z,10.00
2023-04-24T22:12:16.248Z,16.23
2023-04-24T22:14:44.131Z,13.87
2023-04-24T22:17:11.734Z,12.20
2023-04-24T22:19:40.757Z,10.77
2023-04-24T22:22:08.281Z,15.77
2023-04-24T22:24:35.982Z,15.07
2023-04-24T22:27:03.863Z,4.87
2023-04-24T22:29:31.733Z,3.80
2023-04-24T22:31:59.380Z,12.30
2023-04-24T22:34:27.180Z,8.60
2023-04-24T22:36:54.615Z,6.00
2023-04-24T22:39:22.267Z,6.60
2023-04-24T22:41:50.000Z,4.70
2023-04-24T22:44:19.025Z,9.00
2023-04-24T22:46:47.883Z,11.37
2023-04-24T22:49:16.471Z,9.83
2023-04-24T22:51:44.429Z,4.50
2023-04-24T22:54:12.184Z,8.73
2023-04-24T22:56:39.849Z,7.83
2023-04-24T22:59:07.381Z,12.80
2023-04-24T23:01:34.884Z,8.50
2023-04-24T23:04:02.625Z,5.30
2023-04-24T23:06:30.413Z,9.63
2023-04-24T23:08:57.911Z,14.43
2023-04-24T23:11:25.550Z,8.17
2023-04-24T23:13:53.258Z,7.60
2023-04-24T23:16:20.925Z,11.07
2023-04-24T23:18:48.453Z,8.23
2023-04-24T23:21:15.926Z,14.57
2023-04-24T23:23:43.489Z,8.07
2023-04-24T23:26:11.181Z,11.20
2023-04-24T23:28:40.553Z,14.93
2023-04-24T23:31:08.141Z,8.20
2023-04-24T23:33:35.602Z,8.07
2023-04-24T23:36:03.569Z,8.10
2023-04-24T23:38:39.931Z,12.70
2023-04-24T23:41:16.931Z,9.63
2023-04-24T23:43:44.402Z,19.70
2023-04-24T23:46:12.284Z,15.10
2023-04-24T23:48:39.880Z,13.40
2023-04-24T23:51:07.454Z,14.37
2023-04-24T23:53:35.214Z,14.33
2023-04-24T23:56:02.860Z,19.83
2023-04-24T23:58:30.610Z,14.73
